Station Historical Data
Daily Summary for January 5, 2018 Units:  Both    English   Metric
« Previous Day
Next Day »
Daily Weekly Monthly Yearly Custom
  High: Low: Average:
Temperature: TemperatureF °F /  -17.8 °C -1.6 °F /  -18.7 °C 1.8 °F /  -16.8 °C
Dew Point: DewpointF °F /  -17.8 °C -8.0 °F /  -22.2 °C -4.6 °F /  -20.3 °C
Humidity: Humidity% 62% 74%
Wind Speed: WindSpeedMPHmph /  0km/h - 6.3mph /  10.1km/h
Wind Gust: WindSpeedGustMPHmph /  0km/h - -
Wind- - West
Pressure: PressureIn in /  0 hPa 29.94 in /  1013.8 hPa -
Precipitation: 0.00 in /  0 mm    
Historical Graphs
 
 
Tabular Data for January 5, 2018
Time Temperature Dew Point Pressure Wind Wind Speed Wind Gust Humidity Rainfall Rate (Hourly)
TemperatureF °F /  -17.8 °C DewpointF °F /  -17.8 °C PressureInin /  0hPa Calm     Humidity% HourlyPrecipInin /  0mm
00:09 3.5 °F /  -15.8 °C -1.3 °F /  -18.5 °C 29.94in /  1013.8hPa WNW 15.0mph /  24.1km/h 16.0mph /  25.7km/h 80% 0.00in /  0mm
00:14 3.5 °F /  -15.8 °C -1.3 °F /  -18.5 °C 29.95in /  1014.1hPa WNW 8.0mph /  12.9km/h 18.0mph /  29km/h 80% 0.00in /  0mm
00:19 3.4 °F /  -15.9 °C -1.4 °F /  -18.6 °C 29.95in /  1014.1hPa West 4.0mph /  6.4km/h 17.0mph /  27.4km/h 80% 0.00in /  0mm
00:24 3.3 °F /  -15.9 °C -1.5 °F /  -18.6 °C 29.95in /  1014.1hPa NNW 7.0mph /  11.3km/h 14.0mph /  22.5km/h 80% 0.00in /  0mm
00:29 3.3 °F /  -15.9 °C -1.5 °F /  -18.6 °C 29.95in /  1014.1hPa NW 9.0mph /  14.5km/h 14.0mph /  22.5km/h 80% 0.00in /  0mm
00:39 3.3 °F /  -15.9 °C -1.5 °F /  -18.6 °C 29.95in /  1014.1hPa NW 7.0mph /  11.3km/h 16.0mph /  25.7km/h 80% 0.00in /  0mm
00:44 3.3 °F /  -15.9 °C -1.5 °F /  -18.6 °C 29.95in /  1014.1hPa WNW 6.0mph /  9.7km/h 13.0mph /  20.9km/h 80% 0.00in /  0mm
00:54 3.3 °F /  -15.9 °C -1.7 °F /  -18.7 °C 29.95in /  1014.1hPa NW 7.0mph /  11.3km/h 15.0mph /  24.1km/h 79% 0.00in /  0mm
00:59 3.2 °F /  -16 °C -1.8 °F /  -18.8 °C 29.95in /  1014.1hPa West 8.0mph /  12.9km/h 13.0mph /  20.9km/h 79% 0.00in /  0mm
01:04 3.2 °F /  -16 °C -1.8 °F /  -18.8 °C 29.95in /  1014.1hPa WNW 3.0mph /  4.8km/h 12.0mph /  19.3km/h 79% 0.00in /  0mm
01:09 3.3 °F /  -15.9 °C -1.7 °F /  -18.7 °C 29.95in /  1014.1hPa NW 6.0mph /  9.7km/h 16.0mph /  25.7km/h 79% 0.00in /  0mm
01:14 3.4 °F /  -15.9 °C -1.4 °F /  -18.6 °C 29.95in /  1014.1hPa WNW 4.0mph /  6.4km/h 13.0mph /  20.9km/h 80% 0.00in /  0mm
01:19 3.3 °F /  -15.9 °C -1.5 °F /  -18.6 °C 29.95in /  1014.1hPa WNW 6.0mph /  9.7km/h 16.0mph /  25.7km/h 80% 0.00in /  0mm
01:24 3.3 °F /  -15.9 °C -1.5 °F /  -18.6 °C 29.96in /  1014.4hPa WNW 6.0mph /  9.7km/h 16.0mph /  25.7km/h 80% 0.00in /  0mm
01:34 3.2 °F /  -16 °C -1.3 °F /  -18.5 °C 29.96in /  1014.4hPa WNW 11.0mph /  17.7km/h 12.0mph /  19.3km/h 81% 0.00in /  0mm
01:39 3.1 °F /  -16.1 °C -1.4 °F /  -18.6 °C 29.96in /  1014.4hPa WNW 6.0mph /  9.7km/h 13.0mph /  20.9km/h 81% 0.00in /  0mm
01:44 2.9 °F /  -16.2 °C -1.6 °F /  -18.7 °C 29.96in /  1014.4hPa WNW 6.0mph /  9.7km/h 13.0mph /  20.9km/h 81% 0.00in /  0mm
01:49 2.9 °F /  -16.2 °C -1.6 °F /  -18.7 °C 29.96in /  1014.4hPa WNW 5.0mph /  8km/h 15.0mph /  24.1km/h 81% 0.00in /  0mm
01:54 2.9 °F /  -16.2 °C -1.6 °F /  -18.7 °C 29.97in /  1014.8hPa WNW 7.0mph /  11.3km/h 15.0mph /  24.1km/h 81% 0.00in /  0mm
01:59 2.7 °F /  -16.3 °C -1.8 °F /  -18.8 °C 29.97in /  1014.8hPa WNW 6.0mph /  9.7km/h 14.0mph /  22.5km/h 81% 0.00in /  0mm
02:04 2.4 °F /  -16.4 °C -2.1 °F /  -18.9 °C 29.97in /  1014.8hPa WNW 5.0mph /  8km/h 12.0mph /  19.3km/h 81% 0.00in /  0mm
02:09 2.2 °F /  -16.6 °C -2.3 °F /  -19.1 °C 29.97in /  1014.8hPa West 6.0mph /  9.7km/h 12.0mph /  19.3km/h 81% 0.00in /  0mm
02:14 2.0 °F /  -16.7 °C -2.5 °F /  -19.2 °C 29.97in /  1014.8hPa West 6.0mph /  9.7km/h 9.0mph /  14.5km/h 81% 0.00in /  0mm
02:19 1.8 °F /  -16.8 °C -2.7 °F /  -19.3 °C 29.97in /  1014.8hPa WSW 3.0mph /  4.8km/h 7.0mph /  11.3km/h 81% 0.00in /  0mm
02:24 1.8 °F /  -16.8 °C -2.7 °F /  -19.3 °C 29.98in /  1015.1hPa West 4.0mph /  6.4km/h 8.0mph /  12.9km/h 81% 0.00in /  0mm
02:29 1.8 °F /  -16.8 °C -2.7 °F /  -19.3 °C 29.98in /  1015.1hPa West 6.0mph /  9.7km/h 12.0mph /  19.3km/h 81% 0.00in /  0mm
02:34 2.0 °F /  -16.7 °C -2.2 °F /  -19 °C 29.98in /  1015.1hPa NW 9.0mph /  14.5km/h 12.0mph /  19.3km/h 82% 0.00in /  0mm
02:39 2.2 °F /  -16.6 °C -2.0 °F /  -18.9 °C 29.97in /  1014.8hPa West 5.0mph /  8km/h 12.0mph /  19.3km/h 82% 0.00in /  0mm
02:44 2.4 °F /  -16.4 °C -1.8 °F /  -18.8 °C 29.97in /  1014.8hPa WSW 7.0mph /  11.3km/h 16.0mph /  25.7km/h 82% 0.00in /  0mm
02:49 2.5 °F /  -16.4 °C -1.7 °F /  -18.7 °C 29.98in /  1015.1hPa WNW 8.0mph /  12.9km/h 16.0mph /  25.7km/h 82% 0.00in /  0mm
02:54 2.5 °F /  -16.4 °C -1.7 °F /  -18.7 °C 29.98in /  1015.1hPa WNW 6.0mph /  9.7km/h 12.0mph /  19.3km/h 82% 0.00in /  0mm
02:59 2.6 °F /  -16.3 °C -1.6 °F /  -18.7 °C 29.98in /  1015.1hPa West 8.0mph /  12.9km/h 14.0mph /  22.5km/h 82% 0.00in /  0mm
03:04 2.6 °F /  -16.3 °C -1.6 °F /  -18.7 °C 29.98in /  1015.1hPa WNW 7.0mph /  11.3km/h 14.0mph /  22.5km/h 82% 0.00in /  0mm
03:09 2.6 °F /  -16.3 °C -1.6 °F /  -18.7 °C 29.99in /  1015.5hPa WNW 6.0mph /  9.7km/h 11.0mph /  17.7km/h 82% 0.00in /  0mm
03:19 2.5 °F /  -16.4 °C -1.7 °F /  -18.7 °C 29.99in /  1015.5hPa NW 5.0mph /  8km/h 15.0mph /  24.1km/h 82% 0.00in /  0mm
03:29 2.3 °F /  -16.5 °C -1.7 °F /  -18.7 °C 29.99in /  1015.5hPa NW 8.0mph /  12.9km/h 17.0mph /  27.4km/h 83% 0.00in /  0mm
03:34 2.1 °F /  -16.6 °C -2.1 °F /  -18.9 °C 29.99in /  1015.5hPa NW 8.0mph /  12.9km/h 16.0mph /  25.7km/h 82% 0.00in /  0mm
03:39 1.9 °F /  -16.7 °C -2.3 °F /  -19.1 °C 29.99in /  1015.5hPa NW 8.0mph /  12.9km/h 16.0mph /  25.7km/h 82% 0.00in /  0mm
03:44 1.8 °F /  -16.8 °C -2.4 °F /  -19.1 °C 29.99in /  1015.5hPa NW 8.0mph /  12.9km/h 16.0mph /  25.7km/h 82% 0.00in /  0mm
03:54 1.6 °F /  -16.9 °C -2.6 °F /  -19.2 °C 29.99in /  1015.5hPa NW 8.0mph /  12.9km/h 18.0mph /  29km/h 82% 0.00in /  0mm
03:59 1.5 °F /  -16.9 °C -2.7 °F /  -19.3 °C 29.99in /  1015.5hPa WNW 8.0mph /  12.9km/h 18.0mph /  29km/h 82% 0.00in /  0mm
04:04 1.4 °F /  -17 °C -2.8 °F /  -19.3 °C 29.99in /  1015.5hPa WNW 8.0mph /  12.9km/h 18.0mph /  29km/h 82% 0.00in /  0mm
04:09 1.3 °F /  -17.1 °C -2.9 °F /  -19.4 °C 30.00in /  1015.8hPa NW 7.0mph /  11.3km/h 18.0mph /  29km/h 82% 0.00in /  0mm
04:19 1.2 °F /  -17.1 °C -3.0 °F /  -19.4 °C 29.99in /  1015.5hPa NW 15.0mph /  24.1km/h 21.0mph /  33.8km/h 82% 0.00in /  0mm
04:29 1.1 °F /  -17.2 °C -3.1 °F /  -19.5 °C 29.99in /  1015.5hPa NNE 7.0mph /  11.3km/h 14.0mph /  22.5km/h 82% 0.00in /  0mm
04:39 1.0 °F /  -17.2 °C -3.2 °F /  -19.6 °C 30.00in /  1015.8hPa WNW 6.0mph /  9.7km/h 13.0mph /  20.9km/h 82% 0.00in /  0mm
04:44 1.0 °F /  -17.2 °C -3.2 °F /  -19.6 °C 30.00in /  1015.8hPa West 9.0mph /  14.5km/h 18.0mph /  29km/h 82% 0.00in /  0mm
04:49 0.9 °F /  -17.3 °C -3.3 °F /  -19.6 °C 30.00in /  1015.8hPa NNW 10.0mph /  16.1km/h 15.0mph /  24.1km/h 82% 0.00in /  0mm
04:54 0.9 °F /  -17.3 °C -3.3 °F /  -19.6 °C 30.00in /  1015.8hPa WNW 7.0mph /  11.3km/h 19.0mph /  30.6km/h 82% 0.00in /  0mm
04:59 0.8 °F /  -17.3 °C -3.4 °F /  -19.7 °C 30.01in /  1016.1hPa WNW 7.0mph /  11.3km/h 17.0mph /  27.4km/h 82% 0.00in /  0mm
05:09 0.8 °F /  -17.3 °C -3.4 °F /  -19.7 °C 30.01in /  1016.1hPa WNW 5.0mph /  8km/h 12.0mph /  19.3km/h 82% 0.00in /  0mm
05:14 0.9 °F /  -17.3 °C -3.3 °F /  -19.6 °C 30.01in /  1016.1hPa NW 6.0mph /  9.7km/h 17.0mph /  27.4km/h 82% 0.00in /  0mm
05:19 0.9 °F /  -17.3 °C -3.3 °F /  -19.6 °C 30.01in /  1016.1hPa NW 4.0mph /  6.4km/h 15.0mph /  24.1km/h 82% 0.00in /  0mm
05:24 0.9 °F /  -17.3 °C -3.3 °F /  -19.6 °C 30.01in /  1016.1hPa NW 6.0mph /  9.7km/h 16.0mph /  25.7km/h 82% 0.00in /  0mm
05:34 0.9 °F /  -17.3 °C -3.3 °F /  -19.6 °C 30.01in /  1016.1hPa WNW 6.0mph /  9.7km/h 12.0mph /  19.3km/h 82% 0.00in /  0mm
05:44 0.9 °F /  -17.3 °C -3.3 °F /  -19.6 °C 30.02in /  1016.5hPa WNW 6.0mph /  9.7km/h 15.0mph /  24.1km/h 82% 0.00in /  0mm
05:49 0.9 °F /  -17.3 °C -3.3 °F /  -19.6 °C 30.02in /  1016.5hPa WNW 6.0mph /  9.7km/h 15.0mph /  24.1km/h 82% 0.00in /  0mm
05:54 1.0 °F /  -17.2 °C -3.2 °F /  -19.6 °C 30.02in /  1016.5hPa NW 4.0mph /  6.4km/h 9.0mph /  14.5km/h 82% 0.00in /  0mm
06:04 0.9 °F /  -17.3 °C -3.3 °F /  -19.6 °C 30.03in /  1016.8hPa NNW 9.0mph /  14.5km/h 16.0mph /  25.7km/h 82% 0.00in /  0mm
06:14 0.9 °F /  -17.3 °C -3.3 °F /  -19.6 °C 30.03in /  1016.8hPa NW 7.0mph /  11.3km/h 14.0mph /  22.5km/h 82% 0.00in /  0mm
06:19 0.9 °F /  -17.3 °C -3.3 °F /  -19.6 °C 30.03in /  1016.8hPa NW 8.0mph /  12.9km/h 16.0mph /  25.7km/h 82% 0.00in /  0mm
06:24 1.0 °F /  -17.2 °C -3.2 °F /  -19.6 °C 30.03in /  1016.8hPa NW 8.0mph /  12.9km/h 16.0mph /  25.7km/h 82% 0.00in /  0mm
06:29 1.0 °F /  -17.2 °C -3.2 °F /  -19.6 °C 30.03in /  1016.8hPa NW 7.0mph /  11.3km/h 15.0mph /  24.1km/h 82% 0.00in /  0mm
06:39 1.1 °F /  -17.2 °C -3.1 °F /  -19.5 °C 30.03in /  1016.8hPa NW 7.0mph /  11.3km/h 17.0mph /  27.4km/h 82% 0.00in /  0mm
06:44 1.1 °F /  -17.2 °C -3.1 °F /  -19.5 °C 30.04in /  1017.2hPa NW 8.0mph /  12.9km/h 17.0mph /  27.4km/h 82% 0.00in /  0mm
06:49 1.1 °F /  -17.2 °C -3.1 °F /  -19.5 °C 30.04in /  1017.2hPa WNW 6.0mph /  9.7km/h 13.0mph /  20.9km/h 82% 0.00in /  0mm
06:59 1.1 °F /  -17.2 °C -3.4 °F /  -19.7 °C 30.04in /  1017.2hPa NW 5.0mph /  8km/h 15.0mph /  24.1km/h 81% 0.00in /  0mm
07:04 1.2 °F /  -17.1 °C -3.3 °F /  -19.6 °C 30.05in /  1017.5hPa NW 6.0mph /  9.7km/h 15.0mph /  24.1km/h 81% 0.00in /  0mm
07:09 1.2 °F /  -17.1 °C -3.3 °F /  -19.6 °C 30.05in /  1017.5hPa NW 5.0mph /  8km/h 15.0mph /  24.1km/h 81% 0.00in /  0mm
07:19 0.4 °F /  -17.6 °C -4.3 °F /  -20.2 °C 30.05in /  1017.5hPa West 5.0mph /  8km/h 12.0mph /  19.3km/h 80% 0.00in /  0mm
07:24 0.0 °F /  -17.8 °C -4.7 °F /  -20.4 °C 30.06in /  1017.8hPa West 6.0mph /  9.7km/h 12.0mph /  19.3km/h 80% 0.00in /  0mm
07:34 -0.5 °F /  -18.1 °C -5.2 °F /  -20.7 °C 30.06in /  1017.8hPa West 4.0mph /  6.4km/h 10.0mph /  16.1km/h 80% 0.00in /  0mm
07:39 -0.8 °F /  -18.2 °C -5.2 °F /  -20.7 °C 30.06in /  1017.8hPa West 4.0mph /  6.4km/h 9.0mph /  14.5km/h 81% 0.00in /  0mm
07:44 -0.9 °F /  -18.3 °C -5.3 °F /  -20.7 °C 30.07in /  1018.2hPa West 5.0mph /  8km/h 10.0mph /  16.1km/h 81% 0.00in /  0mm
07:49 -1.0 °F /  -18.3 °C -5.4 °F /  -20.8 °C 30.07in /  1018.2hPa West 5.0mph /  8km/h 10.0mph /  16.1km/h 81% 0.00in /  0mm
07:54 -1.1 °F /  -18.4 °C -5.5 °F /  -20.8 °C 30.07in /  1018.2hPa West 6.0mph /  9.7km/h 12.0mph /  19.3km/h 81% 0.00in /  0mm
07:59 -1.2 °F /  -18.4 °C -5.6 °F /  -20.9 °C 30.07in /  1018.2hPa West 3.0mph /  4.8km/h 11.0mph /  17.7km/h 81% 0.00in /  0mm
08:04 -1.3 °F /  -18.5 °C -5.7 °F /  -20.9 °C 30.07in /  1018.2hPa West 6.0mph /  9.7km/h 11.0mph /  17.7km/h 81% 0.00in /  0mm
08:09 -1.3 °F /  -18.5 °C -5.7 °F /  -20.9 °C 30.08in /  1018.5hPa WNW 6.0mph /  9.7km/h 11.0mph /  17.7km/h 81% 0.00in /  0mm
08:14 -1.4 °F /  -18.6 °C -5.8 °F /  -21 °C 30.08in /  1018.5hPa WSW 8.0mph /  12.9km/h 9.0mph /  14.5km/h 81% 0.00in /  0mm
08:19 -1.4 °F /  -18.6 °C -5.8 °F /  -21 °C 30.08in /  1018.5hPa West 6.0mph /  9.7km/h 10.0mph /  16.1km/h 81% 0.00in /  0mm
08:24 -1.4 °F /  -18.6 °C -5.8 °F /  -21 °C 30.08in /  1018.5hPa West 5.0mph /  8km/h 10.0mph /  16.1km/h 81% 0.00in /  0mm
08:29 -1.4 °F /  -18.6 °C -5.8 °F /  -21 °C 30.08in /  1018.5hPa West 4.0mph /  6.4km/h 10.0mph /  16.1km/h 81% 0.00in /  0mm
08:34 -1.5 °F /  -18.6 °C -5.9 °F /  -21.1 °C 30.08in /  1018.5hPa West 4.0mph /  6.4km/h 10.0mph /  16.1km/h 81% 0.00in /  0mm
08:39 -1.5 °F /  -18.6 °C -5.9 °F /  -21.1 °C 30.08in /  1018.5hPa West 4.0mph /  6.4km/h 9.0mph /  14.5km/h 81% 0.00in /  0mm
08:44 -1.5 °F /  -18.6 °C -5.9 °F /  -21.1 °C 30.08in /  1018.5hPa West 4.0mph /  6.4km/h 10.0mph /  16.1km/h 81% 0.00in /  0mm
08:49 -1.6 °F /  -18.7 °C -6.0 °F /  -21.1 °C 30.08in /  1018.5hPa West 5.0mph /  8km/h 10.0mph /  16.1km/h 81% 0.00in /  0mm
08:54 -1.5 °F /  -18.6 °C -5.9 °F /  -21.1 °C 30.09in /  1018.8hPa West 5.0mph /  8km/h 12.0mph /  19.3km/h 81% 0.00in /  0mm
08:59 -1.6 °F /  -18.7 °C -6.0 °F /  -21.1 °C 30.09in /  1018.8hPa West 5.0mph /  8km/h 12.0mph /  19.3km/h 81% 0.00in /  0mm
09:04 -1.5 °F /  -18.6 °C -5.9 °F /  -21.1 °C 30.09in /  1018.8hPa West 5.0mph /  8km/h 11.0mph /  17.7km/h 81% 0.00in /  0mm
09:14 -1.5 °F /  -18.6 °C -5.9 °F /  -21.1 °C 30.09in /  1018.8hPa West 5.0mph /  8km/h 9.0mph /  14.5km/h 81% 0.00in /  0mm
09:19 -1.4 °F /  -18.6 °C -5.8 °F /  -21 °C 30.09in /  1018.8hPa WNW 8.0mph /  12.9km/h 12.0mph /  19.3km/h 81% 0.00in /  0mm
09:24 -1.1 °F /  -18.4 °C -5.5 °F /  -20.8 °C 30.10in /  1019.2hPa West 5.0mph /  8km/h 12.0mph /  19.3km/h 81% 0.00in /  0mm
09:29 -0.9 °F /  -18.3 °C -5.3 °F /  -20.7 °C 30.10in /  1019.2hPa West 5.0mph /  8km/h 10.0mph /  16.1km/h 81% 0.00in /  0mm
09:34 -0.6 °F /  -18.1 °C -5.0 °F /  -20.6 °C 30.10in /  1019.2hPa SW 3.0mph /  4.8km/h 8.0mph /  12.9km/h 81% 0.00in /  0mm
09:39 -0.3 °F /  -17.9 °C -4.7 °F /  -20.4 °C 30.10in /  1019.2hPa West 3.0mph /  4.8km/h 11.0mph /  17.7km/h 81% 0.00in /  0mm
09:44 -0.2 °F /  -17.9 °C -4.6 °F /  -20.3 °C 30.10in /  1019.2hPa West 5.0mph /  8km/h 11.0mph /  17.7km/h 81% 0.00in /  0mm
09:49 0.0 °F /  -17.8 °C -4.4 °F /  -20.2 °C 30.11in /  1019.5hPa West 4.0mph /  6.4km/h 11.0mph /  17.7km/h 81% 0.00in /  0mm
10:04 0.7 °F /  -17.4 °C -4.0 °F /  -20 °C 30.11in /  1019.5hPa West 4.0mph /  6.4km/h 9.0mph /  14.5km/h 80% 0.00in /  0mm
10:09 0.8 °F /  -17.3 °C -3.9 °F /  -19.9 °C 30.11in /  1019.5hPa West 5.0mph /  8km/h 9.0mph /  14.5km/h 80% 0.00in /  0mm
10:14 1.2 °F /  -17.1 °C -3.5 °F /  -19.7 °C 30.11in /  1019.5hPa West 3.0mph /  4.8km/h 10.0mph /  16.1km/h 80% 0.00in /  0mm
10:19 1.2 °F /  -17.1 °C -3.8 °F /  -19.9 °C 30.11in /  1019.5hPa West 5.0mph /  8km/h 10.0mph /  16.1km/h 79% 0.00in /  0mm
10:24 1.2 °F /  -17.1 °C -4.1 °F /  -20.1 °C 30.11in /  1019.5hPa West 5.0mph /  8km/h 11.0mph /  17.7km/h 78% 0.00in /  0mm
10:29 1.4 °F /  -17 °C -3.9 °F /  -19.9 °C 30.12in /  1019.9hPa WNW 4.0mph /  6.4km/h 10.0mph /  16.1km/h 78% 0.00in /  0mm
10:34 1.7 °F /  -16.8 °C -3.8 °F /  -19.9 °C 30.12in /  1019.9hPa West 5.0mph /  8km/h 10.0mph /  16.1km/h 77% 0.00in /  0mm
10:39 1.9 °F /  -16.7 °C -3.7 °F /  -19.8 °C 30.12in /  1019.9hPa West 4.0mph /  6.4km/h 11.0mph /  17.7km/h 77% 0.00in /  0mm
10:44 2.2 °F /  -16.6 °C -3.4 °F /  -19.7 °C 30.12in /  1019.9hPa West 7.0mph /  11.3km/h 12.0mph /  19.3km/h 77% 0.00in /  0mm
10:49 2.5 °F /  -16.4 °C -3.3 °F /  -19.6 °C 30.12in /  1019.9hPa West 3.0mph /  4.8km/h 11.0mph /  17.7km/h 76% 0.00in /  0mm
10:54 2.6 °F /  -16.3 °C -3.2 °F /  -19.6 °C 30.12in /  1019.9hPa West 5.0mph /  8km/h 11.0mph /  17.7km/h 76% 0.00in /  0mm
10:59 2.7 °F /  -16.3 °C -3.1 °F /  -19.5 °C 30.12in /  1019.9hPa WSW 5.0mph /  8km/h 10.0mph /  16.1km/h 76% 0.00in /  0mm
11:04 2.8 °F /  -16.2 °C -3.1 °F /  -19.5 °C 30.12in /  1019.9hPa West 6.0mph /  9.7km/h 10.0mph /  16.1km/h 76% 0.00in /  0mm
11:09 2.9 °F /  -16.2 °C -3.0 °F /  -19.4 °C 30.12in /  1019.9hPa West 6.0mph /  9.7km/h 12.0mph /  19.3km/h 76% 0.00in /  0mm
11:19 3.1 °F /  -16.1 °C -3.0 °F /  -19.4 °C 30.12in /  1019.9hPa WSW 6.0mph /  9.7km/h 11.0mph /  17.7km/h 75% 0.00in /  0mm
11:24 3.3 °F /  -15.9 °C -2.8 °F /  -19.3 °C 30.11in /  1019.5hPa West 5.0mph /  8km/h 10.0mph /  16.1km/h 75% 0.00in /  0mm
11:29 3.5 °F /  -15.8 °C -2.7 °F /  -19.3 °C 30.12in /  1019.9hPa West 5.0mph /  8km/h 10.0mph /  16.1km/h 75% 0.00in /  0mm
11:34 3.7 °F /  -15.7 °C -2.5 °F /  -19.2 °C 30.12in /  1019.9hPa West 7.0mph /  11.3km/h 10.0mph /  16.1km/h 75% 0.00in /  0mm
11:39 3.6 °F /  -15.8 °C -2.6 °F /  -19.2 °C 30.12in /  1019.9hPa West 5.0mph /  8km/h 11.0mph /  17.7km/h 75% 0.00in /  0mm
11:44 3.4 °F /  -15.9 °C -2.7 °F /  -19.3 °C 30.12in /  1019.9hPa West 5.0mph /  8km/h 11.0mph /  17.7km/h 75% 0.00in /  0mm
11:49 3.5 °F /  -15.8 °C -2.7 °F /  -19.3 °C 30.12in /  1019.9hPa West 6.0mph /  9.7km/h 9.0mph /  14.5km/h 75% 0.00in /  0mm
11:54 3.7 °F /  -15.7 °C -2.5 °F /  -19.2 °C 30.12in /  1019.9hPa West 5.0mph /  8km/h 11.0mph /  17.7km/h 75% 0.00in /  0mm
11:59 3.8 °F /  -15.7 °C -2.4 °F /  -19.1 °C 30.12in /  1019.9hPa West 9.0mph /  14.5km/h 12.0mph /  19.3km/h 75% 0.00in /  0mm
12:09 3.7 °F /  -15.7 °C -2.5 °F /  -19.2 °C 30.12in /  1019.9hPa West 7.0mph /  11.3km/h 13.0mph /  20.9km/h 75% 0.00in /  0mm
12:14 3.6 °F /  -15.8 °C -2.8 °F /  -19.3 °C 30.12in /  1019.9hPa West 6.0mph /  9.7km/h 16.0mph /  25.7km/h 74% 0.00in /  0mm
12:19 3.5 °F /  -15.8 °C -2.7 °F /  -19.3 °C 30.12in /  1019.9hPa West 7.0mph /  11.3km/h 16.0mph /  25.7km/h 75% 0.00in /  0mm
12:34 3.6 °F /  -15.8 °C -2.6 °F /  -19.2 °C 30.11in /  1019.5hPa WSW 5.0mph /  8km/h 10.0mph /  16.1km/h 75% 0.00in /  0mm
12:39 4.0 °F /  -15.6 °C -2.2 °F /  -19 °C 30.11in /  1019.5hPa WNW 6.0mph /  9.7km/h 13.0mph /  20.9km/h 75% 0.00in /  0mm
12:44 4.1 °F /  -15.5 °C -2.4 °F /  -19.1 °C 30.11in /  1019.5hPa West 7.0mph /  11.3km/h 14.0mph /  22.5km/h 74% 0.00in /  0mm
12:49 4.1 °F /  -15.5 °C -2.6 °F /  -19.2 °C 30.12in /  1019.9hPa West 8.0mph /  12.9km/h 13.0mph /  20.9km/h 73% 0.00in /  0mm
12:54 3.8 °F /  -15.7 °C -2.9 °F /  -19.4 °C 30.12in /  1019.9hPa West 7.0mph /  11.3km/h 13.0mph /  20.9km/h 73% 0.00in /  0mm
12:59 4.1 °F /  -15.5 °C -2.6 °F /  -19.2 °C 30.12in /  1019.9hPa West 7.0mph /  11.3km/h 13.0mph /  20.9km/h 73% 0.00in /  0mm
13:04 4.2 °F /  -15.4 °C -2.8 °F /  -19.3 °C 30.12in /  1019.9hPa West 6.0mph /  9.7km/h 13.0mph /  20.9km/h 72% 0.00in /  0mm
13:09 4.1 °F /  -15.5 °C -3.2 °F /  -19.6 °C 30.12in /  1019.9hPa WSW 7.0mph /  11.3km/h 14.0mph /  22.5km/h 71% 0.00in /  0mm
13:14 4.0 °F /  -15.6 °C -3.6 °F /  -19.8 °C 30.12in /  1019.9hPa WSW 7.0mph /  11.3km/h 14.0mph /  22.5km/h 70% 0.00in /  0mm
13:19 4.2 °F /  -15.4 °C -3.7 °F /  -19.8 °C 30.12in /  1019.9hPa WSW 7.0mph /  11.3km/h 16.0mph /  25.7km/h 69% 0.00in /  0mm
13:24 4.8 °F /  -15.1 °C -3.5 °F /  -19.7 °C 30.12in /  1019.9hPa West 8.0mph /  12.9km/h 16.0mph /  25.7km/h 68% 0.00in /  0mm
13:29 5.3 °F /  -14.8 °C -3.3 °F /  -19.6 °C 30.12in /  1019.9hPa West 7.0mph /  11.3km/h 13.0mph /  20.9km/h 67% 0.00in /  0mm
13:34 5.4 °F /  -14.8 °C -3.2 °F /  -19.6 °C 30.12in /  1019.9hPa West 7.0mph /  11.3km/h 13.0mph /  20.9km/h 67% 0.00in /  0mm
13:39 5.6 °F /  -14.7 °C -3.3 °F /  -19.6 °C 30.12in /  1019.9hPa West 7.0mph /  11.3km/h 13.0mph /  20.9km/h 66% 0.00in /  0mm
13:44 5.8 °F /  -14.6 °C -2.8 °F /  -19.3 °C 30.12in /  1019.9hPa West 12.0mph /  19.3km/h 13.0mph /  20.9km/h 67% 0.00in /  0mm
13:49 5.5 °F /  -14.7 °C -3.4 °F /  -19.7 °C 30.12in /  1019.9hPa West 6.0mph /  9.7km/h 13.0mph /  20.9km/h 66% 0.00in /  0mm
13:54 5.5 °F /  -14.7 °C -3.1 °F /  -19.5 °C 30.12in /  1019.9hPa West 7.0mph /  11.3km/h 13.0mph /  20.9km/h 67% 0.00in /  0mm
13:59 5.6 °F /  -14.7 °C -3.0 °F /  -19.4 °C 30.12in /  1019.9hPa West 7.0mph /  11.3km/h 12.0mph /  19.3km/h 67% 0.00in /  0mm
14:09 5.3 °F /  -14.8 °C -3.6 °F /  -19.8 °C 30.13in /  1020.2hPa West 7.0mph /  11.3km/h 16.0mph /  25.7km/h 66% 0.00in /  0mm
14:14 5.4 °F /  -14.8 °C -3.5 °F /  -19.7 °C 30.12in /  1019.9hPa West 6.0mph /  9.7km/h 14.0mph /  22.5km/h 66% 0.00in /  0mm
14:24 5.5 °F /  -14.7 °C -3.4 °F /  -19.7 °C 30.13in /  1020.2hPa SW 5.0mph /  8km/h 15.0mph /  24.1km/h 66% 0.00in /  0mm
14:29 5.6 °F /  -14.7 °C -3.3 °F /  -19.6 °C 30.13in /  1020.2hPa West 8.0mph /  12.9km/h 17.0mph /  27.4km/h 66% 0.00in /  0mm
14:34 5.9 °F /  -14.5 °C -3.0 °F /  -19.4 °C 30.13in /  1020.2hPa West 8.0mph /  12.9km/h 17.0mph /  27.4km/h 66% 0.00in /  0mm
14:39 5.9 °F /  -14.5 °C -3.3 °F /  -19.6 °C 30.13in /  1020.2hPa West 9.0mph /  14.5km/h 16.0mph /  25.7km/h 65% 0.00in /  0mm
14:44 5.9 °F /  -14.5 °C -3.7 °F /  -19.8 °C 30.13in /  1020.2hPa WSW 10.0mph /  16.1km/h 15.0mph /  24.1km/h 64% 0.00in /  0mm
14:49 5.8 °F /  -14.6 °C -3.4 °F /  -19.7 °C 30.13in /  1020.2hPa West 8.0mph /  12.9km/h 15.0mph /  24.1km/h 65% 0.00in /  0mm
14:59 6.1 °F /  -14.4 °C -3.2 °F /  -19.6 °C 30.14in /  1020.5hPa West 6.0mph /  9.7km/h 13.0mph /  20.9km/h 65% 0.00in /  0mm
15:04 5.8 °F /  -14.6 °C -3.4 °F /  -19.7 °C 30.14in /  1020.5hPa SW 3.0mph /  4.8km/h 10.0mph /  16.1km/h 65% 0.00in /  0mm
15:09 5.3 °F /  -14.8 °C -4.2 °F /  -20.1 °C 30.14in /  1020.5hPa WNW 8.0mph /  12.9km/h 13.0mph /  20.9km/h 64% 0.00in /  0mm
15:14 4.8 °F /  -15.1 °C -4.7 °F /  -20.4 °C 30.14in /  1020.5hPa WSW 4.0mph /  6.4km/h 15.0mph /  24.1km/h 64% 0.00in /  0mm
15:19 4.9 °F /  -15.1 °C -4.6 °F /  -20.3 °C 30.14in /  1020.5hPa West 7.0mph /  11.3km/h 15.0mph /  24.1km/h 64% 0.00in /  0mm
15:24 5.1 °F /  -14.9 °C -4.4 °F /  -20.2 °C 30.14in /  1020.5hPa WNW 6.0mph /  9.7km/h 16.0mph /  25.7km/h 64% 0.00in /  0mm
15:29 5.1 °F /  -14.9 °C -4.4 °F /  -20.2 °C 30.14in /  1020.5hPa SW 11.0mph /  17.7km/h 15.0mph /  24.1km/h 64% 0.00in /  0mm
15:39 4.7 °F /  -15.2 °C -4.8 °F /  -20.4 °C 30.15in /  1020.9hPa West 8.0mph /  12.9km/h 17.0mph /  27.4km/h 64% 0.00in /  0mm
15:44 4.6 °F /  -15.2 °C -4.9 °F /  -20.5 °C 30.15in /  1020.9hPa West 7.0mph /  11.3km/h 17.0mph /  27.4km/h 64% 0.00in /  0mm
15:54 4.4 °F /  -15.3 °C -5.4 °F /  -20.8 °C 30.16in /  1021.2hPa West 7.0mph /  11.3km/h 13.0mph /  20.9km/h 63% 0.00in /  0mm
16:04 4.3 °F /  -15.4 °C -5.5 °F /  -20.8 °C 30.16in /  1021.2hPa WNW 2.0mph /  3.2km/h 14.0mph /  22.5km/h 63% 0.00in /  0mm
16:09 4.1 °F /  -15.5 °C -5.7 °F /  -20.9 °C 30.16in /  1021.2hPa SW 12.0mph /  19.3km/h 14.0mph /  22.5km/h 63% 0.00in /  0mm
16:19 3.8 °F /  -15.7 °C -6.3 °F /  -21.3 °C 30.16in /  1021.2hPa West 8.0mph /  12.9km/h 14.0mph /  22.5km/h 62% 0.00in /  0mm
16:24 3.6 °F /  -15.8 °C -6.2 °F /  -21.2 °C 30.17in /  1021.6hPa West 7.0mph /  11.3km/h 17.0mph /  27.4km/h 63% 0.00in /  0mm
16:29 3.4 °F /  -15.9 °C -6.7 °F /  -21.5 °C 30.17in /  1021.6hPa SW 4.0mph /  6.4km/h 12.0mph /  19.3km/h 62% 0.00in /  0mm
16:34 3.3 °F /  -15.9 °C -6.8 °F /  -21.6 °C 30.17in /  1021.6hPa NW 3.0mph /  4.8km/h 13.0mph /  20.9km/h 62% 0.00in /  0mm
16:39 3.2 °F /  -16 °C -6.6 °F /  -21.4 °C 30.17in /  1021.6hPa West 6.0mph /  9.7km/h 13.0mph /  20.9km/h 63% 0.00in /  0mm
16:44 3.0 °F /  -16.1 °C -6.8 °F /  -21.6 °C 30.17in /  1021.6hPa West 5.0mph /  8km/h 13.0mph /  20.9km/h 63% 0.00in /  0mm
16:49 2.8 °F /  -16.2 °C -7.0 °F /  -21.7 °C 30.17in /  1021.6hPa West 7.0mph /  11.3km/h 14.0mph /  22.5km/h 63% 0.00in /  0mm
16:54 2.6 °F /  -16.3 °C -7.1 °F /  -21.7 °C 30.17in /  1021.6hPa WSW 8.0mph /  12.9km/h 11.0mph /  17.7km/h 63% 0.00in /  0mm
16:59 2.5 °F /  -16.4 °C -7.2 °F /  -21.8 °C 30.17in /  1021.6hPa West 6.0mph /  9.7km/h 17.0mph /  27.4km/h 63% 0.00in /  0mm
17:04 2.3 °F /  -16.5 °C -7.1 °F /  -21.7 °C 30.18in /  1021.9hPa WNW 4.0mph /  6.4km/h 13.0mph /  20.9km/h 64% 0.00in /  0mm
17:09 2.2 °F /  -16.6 °C -7.2 °F /  -21.8 °C 30.18in /  1021.9hPa WNW 8.0mph /  12.9km/h 14.0mph /  22.5km/h 64% 0.00in /  0mm
17:14 2.1 °F /  -16.6 °C -7.3 °F /  -21.8 °C 30.18in /  1021.9hPa West 3.0mph /  4.8km/h 14.0mph /  22.5km/h 64% 0.00in /  0mm
17:19 2.0 °F /  -16.7 °C -7.4 °F /  -21.9 °C 30.18in /  1021.9hPa West 3.0mph /  4.8km/h 12.0mph /  19.3km/h 64% 0.00in /  0mm
17:24 1.9 °F /  -16.7 °C -7.5 °F /  -21.9 °C 30.18in /  1021.9hPa WSW 6.0mph /  9.7km/h 14.0mph /  22.5km/h 64% 0.00in /  0mm
17:29 1.7 °F /  -16.8 °C -7.7 °F /  -22.1 °C 30.18in /  1021.9hPa West 6.0mph /  9.7km/h 14.0mph /  22.5km/h 64% 0.00in /  0mm
17:39 1.6 °F /  -16.9 °C -7.8 °F /  -22.1 °C 30.19in /  1022.2hPa West 7.0mph /  11.3km/h 13.0mph /  20.9km/h 64% 0.00in /  0mm
17:44 1.5 °F /  -16.9 °C -7.9 °F /  -22.2 °C 30.19in /  1022.2hPa West 6.0mph /  9.7km/h 12.0mph /  19.3km/h 64% 0.00in /  0mm
17:49 1.5 °F /  -16.9 °C -7.9 °F /  -22.2 °C 30.19in /  1022.2hPa WSW 6.0mph /  9.7km/h 12.0mph /  19.3km/h 64% 0.00in /  0mm
17:54 1.4 °F /  -17 °C -7.6 °F /  -22 °C 30.19in /  1022.2hPa WSW 5.0mph /  8km/h 13.0mph /  20.9km/h 65% 0.00in /  0mm
17:59 1.3 °F /  -17.1 °C -7.7 °F /  -22.1 °C 30.19in /  1022.2hPa West 6.0mph /  9.7km/h 13.0mph /  20.9km/h 65% 0.00in /  0mm
18:04 1.3 °F /  -17.1 °C -7.7 °F /  -22.1 °C 30.20in /  1022.6hPa West 6.0mph /  9.7km/h 12.0mph /  19.3km/h 65% 0.00in /  0mm
18:09 1.2 °F /  -17.1 °C -7.8 °F /  -22.1 °C 30.20in /  1022.6hPa West 6.0mph /  9.7km/h 14.0mph /  22.5km/h 65% 0.00in /  0mm
18:14 1.2 °F /  -17.1 °C -7.8 °F /  -22.1 °C 30.20in /  1022.6hPa WSW 7.0mph /  11.3km/h 14.0mph /  22.5km/h 65% 0.00in /  0mm
18:19 1.1 °F /  -17.2 °C -7.9 °F /  -22.2 °C 30.20in /  1022.6hPa West 11.0mph /  17.7km/h 12.0mph /  19.3km/h 65% 0.00in /  0mm
18:24 1.1 °F /  -17.2 °C -7.6 °F /  -22 °C 30.20in /  1022.6hPa West 8.0mph /  12.9km/h 15.0mph /  24.1km/h 66% 0.00in /  0mm
18:29 1.0 °F /  -17.2 °C -7.7 °F /  -22.1 °C 30.20in /  1022.6hPa West 4.0mph /  6.4km/h 12.0mph /  19.3km/h 66% 0.00in /  0mm
18:34 0.9 °F /  -17.3 °C -7.8 °F /  -22.1 °C 30.21in /  1022.9hPa West 2.0mph /  3.2km/h 13.0mph /  20.9km/h 66% 0.00in /  0mm
18:39 0.8 °F /  -17.3 °C -7.9 °F /  -22.2 °C 30.21in /  1022.9hPa West 7.0mph /  11.3km/h 16.0mph /  25.7km/h 66% 0.00in /  0mm
18:44 0.8 °F /  -17.3 °C -7.9 °F /  -22.2 °C 30.21in /  1022.9hPa West 6.0mph /  9.7km/h 16.0mph /  25.7km/h 66% 0.00in /  0mm
18:49 0.8 °F /  -17.3 °C -7.6 °F /  -22 °C 30.21in /  1022.9hPa West 7.0mph /  11.3km/h 11.0mph /  17.7km/h 67% 0.00in /  0mm
18:54 0.8 °F /  -17.3 °C -7.6 °F /  -22 °C 30.21in /  1022.9hPa SW 5.0mph /  8km/h 13.0mph /  20.9km/h 67% 0.00in /  0mm
18:59 0.7 °F /  -17.4 °C -7.7 °F /  -22.1 °C 30.21in /  1022.9hPa West 6.0mph /  9.7km/h 13.0mph /  20.9km/h 67% 0.00in /  0mm
19:04 0.7 °F /  -17.4 °C -7.7 °F /  -22.1 °C 30.22in /  1023.2hPa West 6.0mph /  9.7km/h 16.0mph /  25.7km/h 67% 0.00in /  0mm
19:14 0.6 °F /  -17.4 °C -7.8 °F /  -22.1 °C 30.22in /  1023.2hPa WSW 6.0mph /  9.7km/h 13.0mph /  20.9km/h 67% 0.00in /  0mm
19:19 0.5 °F /  -17.5 °C -7.9 °F /  -22.2 °C 30.22in /  1023.2hPa West 5.0mph /  8km/h 15.0mph /  24.1km/h 67% 0.00in /  0mm
19:24 0.5 °F /  -17.5 °C -7.9 °F /  -22.2 °C 30.22in /  1023.2hPa West 7.0mph /  11.3km/h 17.0mph /  27.4km/h 67% 0.00in /  0mm
19:29 0.6 °F /  -17.4 °C -7.8 °F /  -22.1 °C 30.22in /  1023.2hPa West 6.0mph /  9.7km/h 12.0mph /  19.3km/h 67% 0.00in /  0mm
19:34 0.4 °F /  -17.6 °C -8.0 °F /  -22.2 °C 30.22in /  1023.2hPa West 8.0mph /  12.9km/h 13.0mph /  20.9km/h 67% 0.00in /  0mm
19:44 0.5 °F /  -17.5 °C -7.6 °F /  -22 °C 30.23in /  1023.6hPa West 6.0mph /  9.7km/h 12.0mph /  19.3km/h 68% 0.00in /  0mm
19:49 0.4 °F /  -17.6 °C -7.7 °F /  -22.1 °C 30.23in /  1023.6hPa West 7.0mph /  11.3km/h 13.0mph /  20.9km/h 68% 0.00in /  0mm
19:54 0.3 °F /  -17.6 °C -7.8 °F /  -22.1 °C 30.23in /  1023.6hPa WSW 8.0mph /  12.9km/h 13.0mph /  20.9km/h 68% 0.00in /  0mm
19:59 0.3 °F /  -17.6 °C -7.8 °F /  -22.1 °C 30.23in /  1023.6hPa WSW 5.0mph /  8km/h 13.0mph /  20.9km/h 68% 0.00in /  0mm
20:09 0.1 °F /  -17.7 °C -8.0 °F /  -22.2 °C 30.23in /  1023.6hPa West 6.0mph /  9.7km/h 12.0mph /  19.3km/h 68% 0.00in /  0mm
20:14 0.1 °F /  -17.7 °C -7.7 °F /  -22.1 °C 30.23in /  1023.6hPa West 8.0mph /  12.9km/h 14.0mph /  22.5km/h 69% 0.00in /  0mm
20:19 0.2 °F /  -17.7 °C -7.6 °F /  -22 °C 30.23in /  1023.6hPa West 7.0mph /  11.3km/h 14.0mph /  22.5km/h 69% 0.00in /  0mm
20:24 0.3 °F /  -17.6 °C -7.5 °F /  -21.9 °C 30.23in /  1023.6hPa West 7.0mph /  11.3km/h 14.0mph /  22.5km/h 69% 0.00in /  0mm
20:29 0.3 °F /  -17.6 °C -7.8 °F /  -22.1 °C 30.23in /  1023.6hPa WSW 7.0mph /  11.3km/h 14.0mph /  22.5km/h 68% 0.00in /  0mm
20:34 0.2 °F /  -17.7 °C -7.9 °F /  -22.2 °C 30.23in /  1023.6hPa WSW 6.0mph /  9.7km/h 14.0mph /  22.5km/h 68% 0.00in /  0mm
20:39 0.1 °F /  -17.7 °C -7.7 °F /  -22.1 °C 30.23in /  1023.6hPa WSW 6.0mph /  9.7km/h 10.0mph /  16.1km/h 69% 0.00in /  0mm
20:44 0.0 °F /  -17.8 °C -7.8 °F /  -22.1 °C 30.23in /  1023.6hPa WSW 7.0mph /  11.3km/h 12.0mph /  19.3km/h 69% 0.00in /  0mm
20:49 -0.1 °F /  -17.8 °C -7.9 °F /  -22.2 °C 30.23in /  1023.6hPa West 6.0mph /  9.7km/h 12.0mph /  19.3km/h 69% 0.00in /  0mm
20:54 -0.1 °F /  -17.8 °C -7.9 °F /  -22.2 °C 30.23in /  1023.6hPa SW 4.0mph /  6.4km/h 13.0mph /  20.9km/h 69% 0.00in /  0mm
20:59 -0.1 °F /  -17.8 °C -7.9 °F /  -22.2 °C 30.23in /  1023.6hPa West 6.0mph /  9.7km/h 12.0mph /  19.3km/h 69% 0.00in /  0mm
21:04 -0.1 °F /  -17.8 °C -7.9 °F /  -22.2 °C 30.23in /  1023.6hPa WSW 5.0mph /  8km/h 12.0mph /  19.3km/h 69% 0.00in /  0mm
21:09 -0.1 °F /  -17.8 °C -7.9 °F /  -22.2 °C 30.23in /  1023.6hPa West 4.0mph /  6.4km/h 13.0mph /  20.9km/h 69% 0.00in /  0mm
21:14 0.1 °F /  -17.7 °C -7.7 °F /  -22.1 °C 30.23in /  1023.6hPa WSW 7.0mph /  11.3km/h 15.0mph /  24.1km/h 69% 0.00in /  0mm
21:19 0.2 °F /  -17.7 °C -7.6 °F /  -22 °C 30.23in /  1023.6hPa WSW 8.0mph /  12.9km/h 15.0mph /  24.1km/h 69% 0.00in /  0mm
21:24 0.1 °F /  -17.7 °C -7.7 °F /  -22.1 °C 30.23in /  1023.6hPa West 7.0mph /  11.3km/h 14.0mph /  22.5km/h 69% 0.00in /  0mm
21:29 0.2 °F /  -17.7 °C -7.6 °F /  -22 °C 30.23in /  1023.6hPa West 3.0mph /  4.8km/h 13.0mph /  20.9km/h 69% 0.00in /  0mm
21:34 0.2 °F /  -17.7 °C -7.6 °F /  -22 °C 30.23in /  1023.6hPa West 3.0mph /  4.8km/h 12.0mph /  19.3km/h 69% 0.00in /  0mm
21:39 0.2 °F /  -17.7 °C -7.3 °F /  -21.8 °C 30.23in /  1023.6hPa West 6.0mph /  9.7km/h 14.0mph /  22.5km/h 70% 0.00in /  0mm
21:49 0.1 °F /  -17.7 °C -7.4 °F /  -21.9 °C 30.23in /  1023.6hPa WSW 6.0mph /  9.7km/h 15.0mph /  24.1km/h 70% 0.00in /  0mm
21:54 0.2 °F /  -17.7 °C -7.3 °F /  -21.8 °C 30.23in /  1023.6hPa WSW 7.0mph /  11.3km/h 15.0mph /  24.1km/h 70% 0.00in /  0mm
21:59 0.3 °F /  -17.6 °C -6.9 °F /  -21.6 °C 30.23in /  1023.6hPa WSW 8.0mph /  12.9km/h 15.0mph /  24.1km/h 71% 0.00in /  0mm
22:04 0.3 °F /  -17.6 °C -6.9 °F /  -21.6 °C 30.23in /  1023.6hPa West 7.0mph /  11.3km/h 13.0mph /  20.9km/h 71% 0.00in /  0mm
22:09 0.2 °F /  -17.7 °C -7.0 °F /  -21.7 °C 30.23in /  1023.6hPa West 6.0mph /  9.7km/h 13.0mph /  20.9km/h 71% 0.00in /  0mm
22:10 0.2 °F /  -17.7 °C -7.0 °F /  -21.7 °C 30.23in /  1023.6hPa SW 7.0mph /  11.3km/h 9.0mph /  14.5km/h 71% 0.00in /  0mm
22:19 0.4 °F /  -17.6 °C -6.8 °F /  -21.6 °C 30.23in /  1023.6hPa WSW 8.0mph /  12.9km/h 17.0mph /  27.4km/h 71% 0.00in /  0mm
22:24 0.4 °F /  -17.6 °C -6.8 °F /  -21.6 °C 30.24in /  1023.9hPa West 7.0mph /  11.3km/h 17.0mph /  27.4km/h 71% 0.00in /  0mm
22:34 0.4 °F /  -17.6 °C -6.8 °F /  -21.6 °C 30.24in /  1023.9hPa West 8.0mph /  12.9km/h 17.0mph /  27.4km/h 71% 0.00in /  0mm
22:39 0.5 °F /  -17.5 °C -6.7 °F /  -21.5 °C 30.24in /  1023.9hPa West 8.0mph /  12.9km/h 15.0mph /  24.1km/h 71% 0.00in /  0mm
22:49 0.6 °F /  -17.4 °C -6.6 °F /  -21.4 °C 30.24in /  1023.9hPa WSW 5.0mph /  8km/h 17.0mph /  27.4km/h 71% 0.00in /  0mm
22:50 0.6 °F /  -17.4 °C -6.6 °F /  -21.4 °C 30.24in /  1023.9hPa West 7.0mph /  11.3km/h 17.0mph /  27.4km/h 71% 0.00in /  0mm
22:59 0.8 °F /  -17.3 °C -6.4 °F /  -21.3 °C 30.24in /  1023.9hPa West 7.0mph /  11.3km/h 17.0mph /  27.4km/h 71% 0.00in /  0mm
23:04 0.9 °F /  -17.3 °C -6.3 °F /  -21.3 °C 30.24in /  1023.9hPa West 5.0mph /  8km/h 12.0mph /  19.3km/h 71% 0.00in /  0mm
23:09 1.1 °F /  -17.2 °C -6.1 °F /  -21.2 °C 30.24in /  1023.9hPa West 6.0mph /  9.7km/h 12.0mph /  19.3km/h 71% 0.00in /  0mm
23:14 1.2 °F /  -17.1 °C -5.7 °F /  -20.9 °C 30.24in /  1023.9hPa West 7.0mph /  11.3km/h 16.0mph /  25.7km/h 72% 0.00in /  0mm
23:19 1.4 °F /  -17 °C -5.5 °F /  -20.8 °C 30.24in /  1023.9hPa WSW 8.0mph /  12.9km/h 14.0mph /  22.5km/h 72% 0.00in /  0mm
23:24 1.6 °F /  -16.9 °C -5.3 °F /  -20.7 °C 30.24in /  1023.9hPa West 10.0mph /  16.1km/h 14.0mph /  22.5km/h 72% 0.00in /  0mm
23:29 1.7 °F /  -16.8 °C -5.2 °F /  -20.7 °C 30.24in /  1023.9hPa West 8.0mph /  12.9km/h 14.0mph /  22.5km/h 72% 0.00in /  0mm
23:34 1.8 °F /  -16.8 °C -5.2 °F /  -20.7 °C 30.24in /  1023.9hPa West 8.0mph /  12.9km/h 14.0mph /  22.5km/h 72% 0.00in /  0mm
23:39 1.8 °F /  -16.8 °C -5.2 °F /  -20.7 °C 30.24in /  1023.9hPa West 8.0mph /  12.9km/h 17.0mph /  27.4km/h 72% 0.00in /  0mm
23:44 1.9 °F /  -16.7 °C -5.1 °F /  -20.6 °C 30.23in /  1023.6hPa WNW 5.0mph /  8km/h 16.0mph /  25.7km/h 72% 0.00in /  0mm
23:49 1.9 °F /  -16.7 °C -5.1 °F /  -20.6 °C 30.22in /  1023.2hPa SW 7.0mph /  11.3km/h 18.0mph /  29km/h 72% 0.00in /  0mm
23:54 2.0 °F /  -16.7 °C -4.7 °F /  -20.4 °C 30.22in /  1023.2hPa West 3.0mph /  4.8km/h 17.0mph /  27.4km/h 73% 0.00in /  0mm
Buffalo, New York, USA
Compliments of Weather Underground - 2.25 mb